Time;durP1;ratioP1;P1;durP2;ratioP2;P2;SDS_P1;SDS_P2;PMS_P1;PMS_P2;Temp;Humidity;BMP_temperature;BMP_pressure;BME280_temperature;BME280_humidity;BME280_pressure;Samples;Min_cycle;Max_cycle;Signal;HPM_P1;HPM_P2
2022/11/27 00:01:59;;;;;;;53.28;8.10;;;;;;;;;;5012945;28;20064;-58
2022/11/27 00:04:26;;;;;;;42.70;7.63;;;;;;;;;;5012824;28;20022;-58
2022/11/27 00:06:52;;;;;;;38.25;7.57;;;;;;;;;;5012807;28;20029;-58
2022/11/27 00:09:19;;;;;;;34.95;7.40;;;;;;;;;;5012714;28;20169;-58
2022/11/27 00:11:46;;;;;;;37.92;7.38;;;;;;;;;;5015414;28;20026;-58
2022/11/27 00:14:15;;;;;;;41.65;7.75;;;;;;;;;;5016916;28;20383;-58
2022/11/27 00:16:42;;;;;;;37.35;7.28;;;;;;;;;;5016705;28;20022;-58
2022/11/27 00:19:10;;;;;;;34.75;7.75;;;;;;;;;;5016758;28;20505;-58
2022/11/27 00:21:37;;;;;;;37.70;6.97;;;;;;;;;;5016571;28;20113;-58
2022/11/27 00:24:05;;;;;;;36.08;6.68;;;;;;;;;;5016587;28;20028;-58
2022/11/27 00:26:33;;;;;;;41.70;7.15;;;;;;;;;;5016562;28;20125;-58
2022/11/27 00:29:00;;;;;;;39.92;7.35;;;;;;;;;;5015188;28;20034;-58
2022/11/27 00:31:29;;;;;;;38.42;6.95;;;;;;;;;;5016528;28;20053;-58
2022/11/27 00:33:57;;;;;;;31.83;6.82;;;;;;;;;;5016532;28;20076;-58
2022/11/27 00:36:24;;;;;;;34.80;7.40;;;;;;;;;;5016302;28;20029;-58
2022/11/27 00:38:52;;;;;;;33.67;7.47;;;;;;;;;;5016341;28;20021;-58
2022/11/27 00:41:20;;;;;;;41.03;7.90;;;;;;;;;;5016244;28;20049;-58
2022/11/27 00:43:48;;;;;;;30.75;6.50;;;;;;;;;;5015007;28;20040;-58
2022/11/27 00:46:19;;;;;;;30.77;6.47;;;;;;;;;;5016117;28;20029;-58
2022/11/27 00:48:46;;;;;;;30.00;6.40;;;;;;;;;;5016221;28;20543;-58
2022/11/27 00:51:16;;;;;;;31.10;5.80;;;;;;;;;;5016146;28;20033;-58
2022/11/27 00:53:44;;;;;;;35.67;6.68;;;;;;;;;;5014869;28;20034;-58
2022/11/27 00:56:15;;;;;;;32.10;6.30;;;;;;;;;;5015964;28;20053;-58
2022/11/27 00:58:41;;;;;;;30.60;6.13;;;;;;;;;;5016097;28;20041;-58
2022/11/27 01:01:08;;;;;;;25.13;6.40;;;;;;;;;;5016004;28;20504;-58
2022/11/27 01:03:35;;;;;;;34.97;7.53;;;;;;;;;;5015943;28;20115;-58
2022/11/27 01:06:06;;;;;;;28.92;6.13;;;;;;;;;;5015839;28;20477;-58
2022/11/27 01:08:33;;;;;;;28.23;5.63;;;;;;;;;;5015858;28;20060;-58
2022/11/27 01:11:01;;;;;;;26.70;5.65;;;;;;;;;;5015663;28;20050;-58
2022/11/27 01:13:29;;;;;;;26.67;6.30;;;;;;;;;;5015719;28;20018;-58
2022/11/27 01:16:09;;;;;;;30.63;6.57;;;;;;;;;;5015559;28;20037;-58
2022/11/27 01:18:37;;;;;;;27.70;6.20;;;;;;;;;;5015642;28;20033;-58
2022/11/27 01:21:04;;;;;;;29.50;4.97;;;;;;;;;;5015611;28;20404;-58
2022/11/27 01:23:31;;;;;;;23.33;5.68;;;;;;;;;;5014607;28;20030;-58
2022/11/27 01:26:02;;;;;;;24.55;5.80;;;;;;;;;;5015422;28;20030;-58
2022/11/27 01:28:30;;;;;;;26.10;5.50;;;;;;;;;;5015571;28;20747;-58
2022/11/27 01:30:57;;;;;;;27.48;6.25;;;;;;;;;;5015421;28;20029;-58
2022/11/27 01:33:24;;;;;;;23.80;5.45;;;;;;;;;;5015405;28;20026;-58
2022/11/27 01:35:55;;;;;;;25.00;5.50;;;;;;;;;;5015303;28;20053;-58
2022/11/27 01:38:22;;;;;;;27.92;6.05;;;;;;;;;;5015247;28;20026;-58
2022/11/27 01:40:50;;;;;;;17.73;5.35;;;;;;;;;;5015249;28;20030;-59
2022/11/27 01:43:17;;;;;;;22.10;5.68;;;;;;;;;;5015304;28;20483;-58
2022/11/27 01:45:45;;;;;;;23.98;4.88;;;;;;;;;;5015097;28;20484;-58
2022/11/27 01:48:13;;;;;;;27.23;5.57;;;;;;;;;;5015156;28;20549;-58
2022/11/27 01:50:40;;;;;;;20.40;5.65;;;;;;;;;;5015020;28;20391;-58
2022/11/27 01:53:11;;;;;;;21.33;5.40;;;;;;;;;;5015268;28;20451;-58
2022/11/27 01:55:44;;;;;;;24.23;5.80;;;;;;;;;;5014916;28;20022;-59
2022/11/27 01:58:13;;;;;;;24.98;5.13;;;;;;;;;;5014971;28;20030;-58
2022/11/27 02:00:41;;;;;;;18.63;4.80;;;;;;;;;;5014729;28;20033;-59
2022/11/27 02:03:08;;;;;;;22.73;5.18;;;;;;;;;;5014881;28;20022;-58
2022/11/27 02:05:35;;;;;;;22.08;5.13;;;;;;;;;;5014744;28;20096;-59
2022/11/27 02:08:05;;;;;;;24.20;5.60;;;;;;;;;;5014782;28;20131;-58
2022/11/27 02:10:52;;;;;;;16.02;4.68;;;;;;;;;;5013008;28;20073;-58
2022/11/27 02:13:30;;;;;;;21.17;5.05;;;;;;;;;;5014562;28;20029;-58
2022/11/27 02:16:08;;;;;;;22.70;5.43;;;;;;;;;;5014488;28;20396;-58
2022/11/27 02:18:52;;;;;;;18.95;4.57;;;;;;;;;;5014565;28;20026;-58
2022/11/27 02:21:30;;;;;;;17.75;4.93;;;;;;;;;;5014384;28;20033;-59
2022/11/27 02:24:15;;;;;;;21.65;5.13;;;;;;;;;;5014482;28;20506;-58
2022/11/27 02:26:42;;;;;;;20.13;5.28;;;;;;;;;;5014235;28;20383;-58
2022/11/27 02:29:10;;;;;;;20.33;4.65;;;;;;;;;;5014372;28;20022;-58
2022/11/27 02:31:55;;;;;;;17.83;4.75;;;;;;;;;;5014246;28;20029;-58
2022/11/27 02:34:25;;;;;;;16.67;5.28;;;;;;;;;;5014076;28;20025;-58
2022/11/27 02:37:00;;;;;;;18.35;4.28;;;;;;;;;;5014142;28;20502;-59
2022/11/27 02:39:30;;;;;;;22.02;5.13;;;;;;;;;;5014144;28;20033;-59
2022/11/27 02:42:06;;;;;;;21.70;4.43;;;;;;;;;;5014046;28;20037;-58
2022/11/27 02:44:35;;;;;;;18.85;4.32;;;;;;;;;;5012774;28;20030;-58
2022/11/27 02:47:04;;;;;;;20.23;4.80;;;;;;;;;;5013963;28;20077;-58
2022/11/27 02:49:32;;;;;;;20.33;4.32;;;;;;;;;;5013927;28;20044;-58
2022/11/27 02:52:01;;;;;;;17.17;4.95;;;;;;;;;;5013907;28;20045;-58
2022/11/27 02:54:29;;;;;;;15.75;4.60;;;;;;;;;;5013803;28;20547;-58
2022/11/27 02:56:58;;;;;;;14.50;4.28;;;;;;;;;;5013784;28;20026;-58
2022/11/27 02:59:26;;;;;;;20.02;4.35;;;;;;;;;;5013745;28;20030;-58
2022/11/27 03:01:55;;;;;;;14.50;4.30;;;;;;;;;;5013708;28;20037;-58
2022/11/27 03:04:28;;;;;;;19.63;4.25;;;;;;;;;;5013700;28;20056;-58
2022/11/27 03:06:57;;;;;;;13.77;3.85;;;;;;;;;;5013891;28;20423;-58
2022/11/27 03:09:45;;;;;;;18.27;4.30;;;;;;;;;;5013443;28;20056;-58
2022/11/27 03:12:12;;;;;;;18.08;3.97;;;;;;;;;;5006398;28;20053;-58
2022/11/27 03:14:40;;;;;;;19.27;3.90;;;;;;;;;;5013613;28;20032;-58
2022/11/27 03:17:10;;;;;;;15.23;4.00;;;;;;;;;;5013403;28;20096;-60
2022/11/27 03:19:43;;;;;;;14.93;4.00;;;;;;;;;;5013429;28;20037;-60
2022/11/27 03:22:11;;;;;;;19.02;4.00;;;;;;;;;;5013487;28;20436;-60
2022/11/27 03:24:38;;;;;;;13.95;3.92;;;;;;;;;;5013149;28;20076;-60
2022/11/27 03:27:05;;;;;;;13.65;3.78;;;;;;;;;;5011945;28;20426;-60
2022/11/27 03:29:37;;;;;;;13.43;3.75;;;;;;;;;;5013304;28;20049;-60
2022/11/27 03:32:04;;;;;;;14.25;3.85;;;;;;;;;;5013380;28;20075;-60
2022/11/27 03:34:32;;;;;;;17.75;4.20;;;;;;;;;;5013232;28;20116;-60
2022/11/27 03:36:59;;;;;;;17.33;3.97;;;;;;;;;;5013173;28;20022;-60
2022/11/27 03:39:26;;;;;;;13.82;3.65;;;;;;;;;;5013193;28;20109;-60
2022/11/27 03:42:08;;;;;;;14.48;3.50;;;;;;;;;;5013269;28;20514;-60
2022/11/27 03:44:53;;;;;;;12.63;3.60;;;;;;;;;;5013176;28;20411;-60
2022/11/27 03:47:20;;;;;;;12.43;3.83;;;;;;;;;;5012704;28;20026;-60
2022/11/27 03:50:05;;;;;;;13.95;3.60;;;;;;;;;;5013114;28;20171;-60
2022/11/27 03:52:36;;;;;;;19.42;3.83;;;;;;;;;;5013096;28;20156;-60
2022/11/27 03:55:15;;;;;;;13.40;3.40;;;;;;;;;;5012484;28;20486;-60
2022/11/27 03:57:42;;;;;;;13.68;3.22;;;;;;;;;;5012985;28;20026;-60
2022/11/27 04:00:10;;;;;;;11.85;3.35;;;;;;;;;;5012901;28;20038;-60
2022/11/27 04:02:47;;;;;;;13.23;3.42;;;;;;;;;;5013005;28;20026;-60
2022/11/27 04:05:14;;;;;;;12.95;3.80;;;;;;;;;;5012778;28;20025;-60
2022/11/27 04:07:41;;;;;;;14.73;3.28;;;;;;;;;;5012922;28;20140;-60
2022/11/27 04:10:09;;;;;;;13.77;3.55;;;;;;;;;;5012680;28;20072;-60
2022/11/27 04:12:35;;;;;;;16.10;3.40;;;;;;;;;;5012894;28;20037;-60
2022/11/27 04:15:03;;;;;;;12.32;2.60;;;;;;;;;;5012752;28;20383;-60
2022/11/27 04:17:30;;;;;;;9.55;3.33;;;;;;;;;;5012790;28;20492;-60
2022/11/27 04:19:57;;;;;;;16.92;2.97;;;;;;;;;;5012668;28;20022;-60
2022/11/27 04:22:23;;;;;;;11.27;2.97;;;;;;;;;;5012761;28;20037;-60
2022/11/27 04:24:51;;;;;;;10.77;3.20;;;;;;;;;;5012725;28;20064;-60
2022/11/27 04:27:18;;;;;;;12.70;3.17;;;;;;;;;;5012609;28;20022;-60
2022/11/27 04:29:45;;;;;;;9.77;3.28;;;;;;;;;;5012600;28;20018;-60
2022/11/27 04:32:12;;;;;;;11.02;3.00;;;;;;;;;;5012670;28;20506;-60
2022/11/27 04:34:39;;;;;;;10.20;2.80;;;;;;;;;;5012702;28;20492;-60
2022/11/27 04:37:06;;;;;;;17.42;3.70;;;;;;;;;;5012540;28;20112;-60
2022/11/27 04:39:33;;;;;;;8.43;2.85;;;;;;;;;;5012629;28;20476;-60
2022/11/27 04:42:00;;;;;;;8.27;2.97;;;;;;;;;;5012486;28;20090;-60
2022/11/27 04:44:26;;;;;;;9.43;2.70;;;;;;;;;;5012550;28;20515;-60
2022/11/27 04:46:53;;;;;;;12.50;2.70;;;;;;;;;;5012493;28;20045;-60
2022/11/27 04:49:20;;;;;;;9.80;2.85;;;;;;;;;;5012565;28;20030;-60
2022/11/27 04:51:47;;;;;;;9.82;2.90;;;;;;;;;;5011729;28;20026;-59
2022/11/27 04:54:14;;;;;;;11.07;2.95;;;;;;;;;;5012210;28;20088;-60
2022/11/27 04:56:41;;;;;;;21.15;3.10;;;;;;;;;;5012204;28;20057;-58
2022/11/27 04:59:08;;;;;;;21.83;3.72;;;;;;;;;;5015257;28;20025;-59
2022/11/27 05:01:35;;;;;;;31.98;3.85;;;;;;;;;;5015668;28;20046;-60
2022/11/27 05:04:02;;;;;;;34.72;4.43;;;;;;;;;;5014787;28;20132;-62
2022/11/27 05:06:29;;;;;;;32.53;4.22;;;;;;;;;;5018448;28;20037;-61
2022/11/27 05:09:00;;;;;;;22.73;4.07;;;;;;;;;;5034949;28;20033;-62
2022/11/27 05:11:28;;;;;;;22.42;3.25;;;;;;;;;;5035032;28;20396;-61
2022/11/27 05:16:43;;;;;;;18.10;3.17;;;;;;;;;;5023673;28;20048;-61
2022/11/27 05:19:10;;;;;;;18.77;3.08;;;;;;;;;;5024387;28;20116;-62
2022/11/27 05:21:38;;;;;;;15.13;3.30;;;;;;;;;;5020873;28;20808;-60
2022/11/27 05:24:05;;;;;;;13.05;2.60;;;;;;;;;;5023748;28;20025;-61
2022/11/27 05:26:32;;;;;;;14.32;2.95;;;;;;;;;;5023639;28;20044;-61
2022/11/27 05:28:59;;;;;;;12.10;3.00;;;;;;;;;;5019975;28;20037;-61
2022/11/27 05:31:26;;;;;;;12.82;3.00;;;;;;;;;;5013648;28;20112;-61
2022/11/27 05:33:53;;;;;;;12.65;3.10;;;;;;;;;;5015299;28;20032;-61
2022/11/27 05:36:20;;;;;;;9.52;2.55;;;;;;;;;;5015193;28;20045;-61
2022/11/27 05:38:47;;;;;;;15.93;2.92;;;;;;;;;;5015281;28;20022;-61
2022/11/27 05:41:14;;;;;;;14.68;2.58;;;;;;;;;;5015151;28;20109;-61
2022/11/27 05:43:41;;;;;;;9.05;2.50;;;;;;;;;;5015225;28;20026;-61
2022/11/27 05:46:09;;;;;;;10.85;2.80;;;;;;;;;;5014909;28;20030;-61
2022/11/27 05:48:36;;;;;;;11.55;2.65;;;;;;;;;;5015145;28;20026;-61
2022/11/27 05:51:04;;;;;;;10.20;2.95;;;;;;;;;;5015096;28;20026;-61
2022/11/27 05:53:31;;;;;;;10.52;2.45;;;;;;;;;;5015014;28;20026;-61
2022/11/27 05:56:05;;;;;;;11.45;2.97;;;;;;;;;;5014923;28;20056;-61
2022/11/27 05:58:32;;;;;;;11.93;2.83;;;;;;;;;;5013776;28;20492;-61
2022/11/27 06:00:59;;;;;;;10.40;2.80;;;;;;;;;;5012176;28;20095;-60
2022/11/27 06:03:26;;;;;;;12.65;2.67;;;;;;;;;;5014552;28;20057;-61
2022/11/27 06:05:53;;;;;;;8.30;2.10;;;;;;;;;;5014655;28;20034;-61
2022/11/27 06:08:20;;;;;;;9.23;2.40;;;;;;;;;;5014255;28;20030;-61
2022/11/27 06:10:48;;;;;;;9.75;2.75;;;;;;;;;;5014356;28;20037;-61
2022/11/27 06:13:15;;;;;;;11.93;2.50;;;;;;;;;;5013275;28;20409;-61
2022/11/27 06:15:42;;;;;;;10.93;2.70;;;;;;;;;;5014473;28;20025;-61
2022/11/27 06:18:11;;;;;;;6.97;2.08;;;;;;;;;;5014543;28;20384;-61
2022/11/27 06:20:38;;;;;;;10.70;2.60;;;;;;;;;;5014328;28;20084;-61
2022/11/27 06:23:05;;;;;;;6.47;2.40;;;;;;;;;;5014311;28;20018;-61
2022/11/27 06:25:32;;;;;;;7.47;2.30;;;;;;;;;;5014226;28;20384;-61
2022/11/27 06:27:59;;;;;;;8.40;2.50;;;;;;;;;;5014331;28;20550;-62
2022/11/27 06:30:25;;;;;;;11.88;2.80;;;;;;;;;;5014297;28;20022;-61
2022/11/27 06:32:52;;;;;;;10.50;2.38;;;;;;;;;;5014182;28;20136;-61
2022/11/27 06:35:19;;;;;;;6.45;2.15;;;;;;;;;;5014019;28;20476;-61
2022/11/27 06:37:46;;;;;;;9.70;2.42;;;;;;;;;;5014132;28;20022;-61
2022/11/27 06:40:13;;;;;;;7.15;2.05;;;;;;;;;;5014070;28;20038;-61
2022/11/27 06:42:40;;;;;;;7.03;2.42;;;;;;;;;;5014116;28;20029;-61
2022/11/27 06:45:07;;;;;;;8.75;2.20;;;;;;;;;;5013969;28;20084;-61
2022/11/27 06:47:34;;;;;;;8.27;2.03;;;;;;;;;;5014083;28;20447;-61
2022/11/27 06:50:01;;;;;;;12.18;2.40;;;;;;;;;;5013894;28;20037;-61
2022/11/27 06:52:29;;;;;;;8.02;2.47;;;;;;;;;;5013877;28;20018;-61
2022/11/27 06:54:56;;;;;;;10.40;2.22;;;;;;;;;;5013718;28;20484;-61
2022/11/27 06:57:23;;;;;;;5.78;1.73;;;;;;;;;;5013920;28;20152;-61
2022/11/27 06:59:50;;;;;;;10.07;2.47;;;;;;;;;;5013660;28;20037;-61
2022/11/27 07:02:17;;;;;;;7.07;2.13;;;;;;;;;;5013920;28;20041;-61
2022/11/27 07:04:44;;;;;;;9.00;2.60;;;;;;;;;;5033315;28;20025;-61
2022/11/27 07:07:11;;;;;;;5.75;1.95;;;;;;;;;;5033358;28;20047;-61
2022/11/27 07:09:38;;;;;;;7.82;2.28;;;;;;;;;;5033168;28;20138;-61
2022/11/27 07:12:07;;;;;;;12.38;2.25;;;;;;;;;;5033305;28;20105;-61
2022/11/27 07:14:33;;;;;;;9.25;2.00;;;;;;;;;;5033194;28;20060;-61
2022/11/27 07:17:00;;;;;;;7.63;2.15;;;;;;;;;;5032753;28;20026;-61
2022/11/27 07:19:27;;;;;;;6.97;2.00;;;;;;;;;;5033035;28;20036;-61
2022/11/27 07:21:54;;;;;;;8.68;2.60;;;;;;;;;;5032323;28;20033;-61
2022/11/27 07:24:21;;;;;;;10.43;2.28;;;;;;;;;;5032993;28;20040;-61
2022/11/27 07:26:48;;;;;;;7.28;1.98;;;;;;;;;;5032836;28;20049;-61
2022/11/27 07:29:15;;;;;;;6.00;1.58;;;;;;;;;;5032919;28;20071;-61
2022/11/27 07:31:42;;;;;;;5.90;2.13;;;;;;;;;;5032797;28;20487;-61
2022/11/27 07:34:09;;;;;;;6.63;1.98;;;;;;;;;;5032920;28;20022;-61
2022/11/27 07:36:36;;;;;;;8.50;2.15;;;;;;;;;;5032806;28;20391;-61
2022/11/27 07:39:03;;;;;;;12.95;2.13;;;;;;;;;;5033000;28;20514;-61
2022/11/27 07:41:30;;;;;;;5.32;1.90;;;;;;;;;;5032657;28;20029;-61
2022/11/27 07:43:57;;;;;;;5.25;1.92;;;;;;;;;;5032770;28;20033;-61
2022/11/27 07:46:24;;;;;;;8.98;1.95;;;;;;;;;;5032635;28;20022;-61
2022/11/27 07:48:51;;;;;;;8.90;2.20;;;;;;;;;;5032683;28;20018;-61
2022/11/27 07:51:19;;;;;;;5.57;1.85;;;;;;;;;;5032749;28;20488;-62
2022/11/27 07:53:47;;;;;;;3.90;1.65;;;;;;;;;;5032694;28;20017;-61
2022/11/27 07:56:15;;;;;;;8.32;1.90;;;;;;;;;;5032529;28;20035;-61
2022/11/27 07:58:43;;;;;;;10.43;1.70;;;;;;;;;;5032584;28;20612;-61
2022/11/27 08:01:13;;;;;;;7.05;2.10;;;;;;;;;;5032612;28;20558;-61
2022/11/27 08:03:43;;;;;;;7.68;1.85;;;;;;;;;;5032566;28;20040;-61
2022/11/27 08:06:15;;;;;;;8.15;1.92;;;;;;;;;;5032433;28;20132;-61
2022/11/27 08:08:42;;;;;;;6.15;1.92;;;;;;;;;;5032550;28;20022;-61
2022/11/27 08:11:25;;;;;;;5.40;1.60;;;;;;;;;;5032364;28;20539;-61
2022/11/27 08:13:56;;;;;;;5.13;1.70;;;;;;;;;;5032350;28;20104;-61
2022/11/27 08:16:23;;;;;;;5.60;1.73;;;;;;;;;;5032296;28;20065;-61
2022/11/27 08:18:50;;;;;;;7.35;2.00;;;;;;;;;;5032539;28;20025;-61
2022/11/27 08:21:17;;;;;;;5.40;1.88;;;;;;;;;;5032356;28;20084;-61
2022/11/27 08:23:44;;;;;;;4.80;1.67;;;;;;;;;;5032359;28;20029;-61
2022/11/27 08:26:11;;;;;;;4.60;1.60;;;;;;;;;;5032313;28;20026;-62
2022/11/27 08:28:39;;;;;;;5.60;1.70;;;;;;;;;;5032319;28;20120;-61
2022/11/27 08:31:07;;;;;;;5.70;1.50;;;;;;;;;;5032241;28;20035;-62
2022/11/27 08:33:34;;;;;;;6.03;1.50;;;;;;;;;;5036072;28;20116;-61
2022/11/27 08:36:01;;;;;;;4.63;1.30;;;;;;;;;;5035758;28;20452;-61
2022/11/27 08:38:28;;;;;;;5.75;1.50;;;;;;;;;;5034828;28;20102;-61
2022/11/27 08:40:56;;;;;;;7.70;1.60;;;;;;;;;;5035966;28;20056;-62
2022/11/27 08:43:23;;;;;;;4.40;1.23;;;;;;;;;;5036106;28;20400;-61
2022/11/27 08:45:51;;;;;;;5.38;1.30;;;;;;;;;;5036071;28;20365;-62
2022/11/27 08:48:18;;;;;;;6.07;1.48;;;;;;;;;;5036008;28;20028;-61
2022/11/27 08:50:45;;;;;;;4.10;1.52;;;;;;;;;;5035924;28;20052;-61
2022/11/27 08:53:12;;;;;;;3.97;1.30;;;;;;;;;;5035948;28;20028;-61
2022/11/27 08:55:39;;;;;;;5.07;1.40;;;;;;;;;;5035719;28;20026;-61
2022/11/27 08:58:06;;;;;;;6.03;1.50;;;;;;;;;;5035811;28;20059;-58
2022/11/27 09:00:33;;;;;;;6.15;1.63;;;;;;;;;;5034393;28;20380;-58
2022/11/27 09:03:00;;;;;;;3.55;1.45;;;;;;;;;;5035818;28;20483;-59
2022/11/27 09:05:28;;;;;;;3.15;1.10;;;;;;;;;;5035649;28;20096;-59
2022/11/27 09:07:55;;;;;;;4.63;1.35;;;;;;;;;;5035610;28;20029;-59
2022/11/27 09:10:22;;;;;;;6.82;1.30;;;;;;;;;;5035361;28;20049;-59
2022/11/27 09:12:50;;;;;;;7.93;1.30;;;;;;;;;;5035509;28;20053;-59
2022/11/27 09:15:18;;;;;;;4.18;1.10;;;;;;;;;;5035371;28;20025;-59
2022/11/27 09:17:45;;;;;;;4.72;1.15;;;;;;;;;;5035451;28;20029;-59
2022/11/27 09:20:13;;;;;;;5.53;1.10;;;;;;;;;;5035268;28;20025;-59
2022/11/27 09:22:40;;;;;;;3.60;1.30;;;;;;;;;;5035380;28;20108;-59
2022/11/27 09:25:08;;;;;;;2.53;0.90;;;;;;;;;;5035211;28;20029;-59
2022/11/27 09:27:36;;;;;;;4.68;1.13;;;;;;;;;;5035350;28;20548;-58
2022/11/27 09:30:03;;;;;;;5.75;1.15;;;;;;;;;;5035234;28;20064;-59
2022/11/27 09:32:30;;;;;;;6.03;1.20;;;;;;;;;;5035149;28;20128;-58
2022/11/27 09:34:57;;;;;;;7.25;1.05;;;;;;;;;;5035097;28;20032;-59
2022/11/27 09:37:24;;;;;;;6.13;1.10;;;;;;;;;;5035018;28;20022;-58
2022/11/27 09:39:51;;;;;;;3.65;1.00;;;;;;;;;;5035137;28;20025;-58
2022/11/27 09:42:32;;;;;;;6.35;1.10;;;;;;;;;;5034917;28;20064;-59
2022/11/27 09:45:00;;;;;;;5.95;1.00;;;;;;;;;;5033986;28;20026;-58
2022/11/27 09:47:27;;;;;;;2.30;0.80;;;;;;;;;;5034987;28;20025;-59
2022/11/27 09:49:57;;;;;;;7.72;1.08;;;;;;;;;;5034835;28;20040;-59
2022/11/27 09:52:44;;;;;;;4.22;0.88;;;;;;;;;;5034794;28;20392;-59
2022/11/27 09:55:13;;;;;;;4.47;0.80;;;;;;;;;;5034655;28;20116;-58
2022/11/27 09:57:41;;;;;;;4.45;1.23;;;;;;;;;;5033386;28;20488;-58
2022/11/27 10:00:16;;;;;;;3.15;0.80;;;;;;;;;;5034533;28;20567;-59
2022/11/27 10:02:44;;;;;;;6.38;1.10;;;;;;;;;;5034661;28;20030;-59
2022/11/27 10:05:14;;;;;;;3.17;0.90;;;;;;;;;;5034462;28;20518;-58
2022/11/27 10:08:00;;;;;;;2.05;0.80;;;;;;;;;;5034451;28;20052;-59
2022/11/27 10:10:45;;;;;;;3.55;0.80;;;;;;;;;;5033961;28;20543;-59
2022/11/27 10:13:15;;;;;;;4.20;0.90;;;;;;;;;;5034322;28;20076;-58
2022/11/27 10:15:46;;;;;;;4.82;0.73;;;;;;;;;;5034303;28;20026;-59
2022/11/27 10:18:25;;;;;;;4.50;1.00;;;;;;;;;;5034261;28;20116;-59
2022/11/27 10:21:02;;;;;;;3.60;0.82;;;;;;;;;;5034170;28;20434;-59
2022/11/27 10:23:47;;;;;;;5.22;1.00;;;;;;;;;;5034218;28;20075;-58
2022/11/27 10:26:29;;;;;;;5.78;0.95;;;;;;;;;;5034118;28;20119;-59
2022/11/27 10:29:14;;;;;;;2.45;0.75;;;;;;;;;;5034152;28;20483;-59
2022/11/27 10:31:48;;;;;;;5.18;0.70;;;;;;;;;;5034031;28;20037;-58
2022/11/27 10:34:33;;;;;;;8.43;1.10;;;;;;;;;;5033918;28;20037;-59
2022/11/27 10:37:01;;;;;;;2.30;0.93;;;;;;;;;;5034023;28;20167;-59
2022/11/27 10:39:34;;;;;;;7.93;0.93;;;;;;;;;;5032629;28;20025;-59
2022/11/27 10:42:09;;;;;;;4.13;0.80;;;;;;;;;;5033798;28;20432;-59
2022/11/27 10:44:39;;;;;;;4.22;0.90;;;;;;;;;;5032464;28;20037;-58
2022/11/27 10:47:10;;;;;;;3.90;1.00;;;;;;;;;;5033845;28;20053;-58
2022/11/27 10:49:39;;;;;;;4.25;0.73;;;;;;;;;;5033722;28;20499;-59
2022/11/27 10:52:10;;;;;;;4.95;1.17;;;;;;;;;;5033713;28;20108;-59
2022/11/27 10:54:38;;;;;;;4.05;1.20;;;;;;;;;;5033629;28;20025;-58
2022/11/27 10:57:08;;;;;;;2.38;0.82;;;;;;;;;;5032320;28;20036;-59
2022/11/27 10:59:37;;;;;;;7.30;1.30;;;;;;;;;;5033497;28;20032;-58
2022/11/27 11:02:07;;;;;;;1.83;0.70;;;;;;;;;;5033457;28;20030;-59
2022/11/27 11:04:34;;;;;;;5.60;1.00;;;;;;;;;;5033339;28;20033;-59
2022/11/27 11:07:01;;;;;;;2.78;0.95;;;;;;;;;;5032011;28;20037;-59
2022/11/27 11:09:30;;;;;;;4.30;1.02;;;;;;;;;;5033331;28;20411;-59
2022/11/27 11:12:17;;;;;;;4.38;0.75;;;;;;;;;;5032959;28;20068;-61
2022/11/27 11:14:57;;;;;;;4.35;1.00;;;;;;;;;;5033377;28;20048;-61
2022/11/27 11:17:28;;;;;;;2.88;0.80;;;;;;;;;;5033183;28;20033;-61
2022/11/27 11:19:55;;;;;;;6.88;1.00;;;;;;;;;;5033194;28;20105;-61
2022/11/27 11:22:23;;;;;;;7.78;1.05;;;;;;;;;;5033035;28;20029;-61
2022/11/27 11:24:51;;;;;;;4.75;1.33;;;;;;;;;;5032936;28;20056;-61
2022/11/27 11:27:29;;;;;;;3.83;1.10;;;;;;;;;;5033101;28;20035;-61
2022/11/27 11:29:59;;;;;;;3.88;1.10;;;;;;;;;;5033101;28;20025;-61
2022/11/27 11:32:28;;;;;;;8.32;1.10;;;;;;;;;;5032957;28;20490;-61
2022/11/27 11:35:17;;;;;;;6.50;1.10;;;;;;;;;;5032925;28;20052;-61
2022/11/27 11:37:46;;;;;;;10.68;1.55;;;;;;;;;;5025226;28;20033;-61
2022/11/27 11:40:15;;;;;;;6.38;1.55;;;;;;;;;;5032770;28;20032;-61
2022/11/27 11:42:53;;;;;;;5.05;1.52;;;;;;;;;;5031597;28;20022;-61
2022/11/27 11:45:21;;;;;;;5.22;1.30;;;;;;;;;;5032759;28;20025;-61
2022/11/27 11:47:53;;;;;;;5.32;1.38;;;;;;;;;;5032806;28;20033;-61
2022/11/27 11:50:23;;;;;;;4.30;1.05;;;;;;;;;;5032694;28;20029;-61
2022/11/27 11:52:56;;;;;;;4.35;1.42;;;;;;;;;;5032880;28;20021;-61
2022/11/27 11:55:27;;;;;;;9.07;1.40;;;;;;;;;;5032631;28;20025;-61
2022/11/27 11:57:54;;;;;;;3.40;1.35;;;;;;;;;;5032688;28;20116;-61
2022/11/27 12:00:22;;;;;;;7.55;1.27;;;;;;;;;;5032665;28;20503;-61
2022/11/27 12:02:52;;;;;;;4.80;1.33;;;;;;;;;;5032546;28;20036;-61
2022/11/27 12:05:28;;;;;;;4.97;1.10;;;;;;;;;;5032509;28;20036;-61
2022/11/27 12:08:13;;;;;;;8.68;1.73;;;;;;;;;;5037901;28;20108;-61
2022/11/27 12:10:44;;;;;;;5.80;1.50;;;;;;;;;;5038918;28;20056;-61
2022/11/27 12:13:26;;;;;;;4.45;1.15;;;;;;;;;;5039241;28;20033;-61
2022/11/27 12:16:06;;;;;;;10.07;1.65;;;;;;;;;;5039000;28;20025;-61
2022/11/27 12:18:36;;;;;;;6.88;1.77;;;;;;;;;;5039085;28;20027;-61
2022/11/27 12:21:17;;;;;;;8.73;1.80;;;;;;;;;;5038926;28;20539;-61
2022/11/27 12:23:53;;;;;;;8.55;1.80;;;;;;;;;;5039095;28;20499;-61
2022/11/27 12:26:40;;;;;;;8.52;1.60;;;;;;;;;;5038919;28;20033;-61
2022/11/27 12:29:25;;;;;;;8.48;1.48;;;;;;;;;;5038981;28;20025;-61
2022/11/27 12:31:55;;;;;;;13.45;1.73;;;;;;;;;;5038918;28;20025;-61
2022/11/27 12:34:42;;;;;;;11.32;1.75;;;;;;;;;;5038847;28;20033;-61
2022/11/27 12:37:15;;;;;;;13.15;1.50;;;;;;;;;;5038883;28;20025;-61
2022/11/27 12:39:57;;;;;;;13.60;2.00;;;;;;;;;;5037497;28;20369;-61
2022/11/27 12:42:24;;;;;;;;;;;;;;;;;;5039268;28;20030;-61
2022/11/27 12:44:55;;;;;;;10.70;1.92;;;;;;;;;;5038727;28;19966;-61
2022/11/27 12:47:40;;;;;;;16.50;2.00;;;;;;;;;;5038884;28;20040;-61
2022/11/27 12:50:24;;;;;;;11.00;1.65;;;;;;;;;;5038810;28;20029;-61
2022/11/27 12:53:10;;;;;;;12.57;1.90;;;;;;;;;;5038739;28;20125;-61
2022/11/27 12:55:38;;;;;;;12.13;1.80;;;;;;;;;;5038600;28;20037;-62
2022/11/27 12:58:19;;;;;;;9.40;1.77;;;;;;;;;;5038689;28;20487;-61
2022/11/27 13:00:48;;;;;;;13.77;2.33;;;;;;;;;;5038634;28;20037;-61
2022/11/27 13:03:20;;;;;;;13.80;2.10;;;;;;;;;;5020571;28;20022;-61
2022/11/27 13:05:51;;;;;;;12.43;2.00;;;;;;;;;;5018763;28;20034;-61
2022/11/27 13:08:21;;;;;;;8.48;2.00;;;;;;;;;;5018182;28;20121;-62
2022/11/27 13:10:54;;;;;;;12.05;1.95;;;;;;;;;;5033145;28;20046;-59
2022/11/27 13:13:21;;;;;;;8.23;1.85;;;;;;;;;;5026413;28;20435;-61
2022/11/27 13:15:50;;;;;;;13.23;1.92;;;;;;;;;;5028420;28;20083;-61
2022/11/27 13:18:38;;;;;;;13.07;2.22;;;;;;;;;;5024361;28;20076;-58
2022/11/27 13:21:13;;;;;;;9.77;1.70;;;;;;;;;;5025517;28;20037;-61
2022/11/27 13:23:40;;;;;;;8.40;1.67;;;;;;;;;;5024454;28;20025;-59
2022/11/27 13:26:14;;;;;;;6.07;1.70;;;;;;;;;;5022969;28;20018;-59
2022/11/27 13:28:42;;;;;;;11.13;1.92;;;;;;;;;;5025093;28;20904;-59
2022/11/27 13:31:16;;;;;;;10.30;1.77;;;;;;;;;;5023603;28;20100;-62
2022/11/27 13:33:44;;;;;;;14.07;1.92;;;;;;;;;;5022540;28;20026;-63
2022/11/27 13:36:19;;;;;;;13.68;2.10;;;;;;;;;;5022879;28;20138;-59
2022/11/27 13:38:52;;;;;;;14.57;1.73;;;;;;;;;;5024151;28;20030;-59
2022/11/27 13:41:31;;;;;;;13.32;2.28;;;;;;;;;;5022586;28;20044;-62
2022/11/27 13:43:58;;;;;;;14.35;1.83;;;;;;;;;;5022220;28;20040;-62
2022/11/27 13:46:27;;;;;;;10.30;2.30;;;;;;;;;;5020830;28;20025;-59
2022/11/27 13:48:56;;;;;;;16.30;2.50;;;;;;;;;;5031239;28;20037;-62
2022/11/27 13:51:33;;;;;;;6.72;1.77;;;;;;;;;;5026908;28;20022;-62
2022/11/27 13:54:08;;;;;;;9.50;2.08;;;;;;;;;;5021346;28;20065;-59
2022/11/27 13:56:35;;;;;;;10.40;2.00;;;;;;;;;;5023077;28;20506;-62
2022/11/27 13:59:12;;;;;;;13.40;2.10;;;;;;;;;;5014227;28;20026;-59
2022/11/27 14:01:39;;;;;;;11.82;2.17;;;;;;;;;;5014065;28;20050;-59
2022/11/27 14:04:10;;;;;;;11.55;2.35;;;;;;;;;;5013999;28;20040;-61
2022/11/27 14:06:38;;;;;;;15.85;2.85;;;;;;;;;;5018737;28;20030;-60
2022/11/27 14:09:06;;;;;;;9.65;2.38;;;;;;;;;;5030700;28;20072;-60
2022/11/27 14:11:38;;;;;;;12.95;2.13;;;;;;;;;;5033216;28;20388;-60
2022/11/27 14:14:31;;;;;;;11.40;2.17;;;;;;;;;;5028268;28;20386;-63
2022/11/27 14:17:03;;;;;;;9.85;2.13;;;;;;;;;;5020611;28;20038;-60
2022/11/27 14:19:33;;;;;;;6.18;2.28;;;;;;;;;;5021811;28;20034;-60
2022/11/27 14:22:01;;;;;;;9.57;1.92;;;;;;;;;;5020254;28;20126;-62
2022/11/27 14:24:39;;;;;;;9.60;1.95;;;;;;;;;;5016032;28;20076;-61
2022/11/27 14:27:23;;;;;;;7.35;2.15;;;;;;;;;;5022422;28;20396;-60
2022/11/27 14:29:50;;;;;;;10.90;2.20;;;;;;;;;;5033003;28;20029;-60
2022/11/27 14:32:18;;;;;;;21.08;2.83;;;;;;;;;;5031738;28;20056;-58
2022/11/27 14:34:46;;;;;;;12.02;2.65;;;;;;;;;;5033139;28;20026;-59
2022/11/27 14:37:24;;;;;;;15.65;2.90;;;;;;;;;;5033154;28;20053;-57
2022/11/27 14:39:51;;;;;;;21.83;3.10;;;;;;;;;;5031792;28;20083;-62
2022/11/27 14:42:23;;;;;;;22.92;2.88;;;;;;;;;;5021047;28;20032;-61
2022/11/27 14:45:00;;;;;;;17.00;3.03;;;;;;;;;;5025882;28;20090;-65
2022/11/27 14:47:27;;;;;;;18.58;3.03;;;;;;;;;;5019789;28;20032;-59
2022/11/27 14:49:55;;;;;;;16.73;3.25;;;;;;;;;;5021048;28;20056;-59
2022/11/27 14:52:22;;;;;;;15.15;3.10;;;;;;;;;;5022492;28;20033;-59
2022/11/27 14:54:50;;;;;;;23.25;4.03;;;;;;;;;;5010590;28;20036;-61
2022/11/27 14:57:30;;;;;;;35.92;4.70;;;;;;;;;;5028246;28;20034;-57